Still River, Massachusetts
Current Conditions -  °F | °C
As of 6:05 AM on Thursday 23 Oct 2014 (Local Time) from KFIT Reporting Station
Heavy Rain Heavy Rain  
Wind Chill: 43°   Ceiling: 2800
Heat Index: 48°   Visibility: 4mi
Dew Point: 45°   Wind: 10mph
Humidity: 89%   Direction: 340°NNW
Pressure: 29.77"   Gusts: 18mph
Location:  42.49°N, 71.62°W
Report Text: KFIT 231005Z AUTO 34009G16KT 4SM +RA BR FEW009 BKN028 OVC040 09/07 A2977 RMK AO2 P0004 T00890072
Loading
Personal Weather Stations






























Interactive Weather Map
Tropical Storm Tracking
New forecast layout! Learn more

10-Day Weather Forecast

Advertisements
Track Severe Weather on mobile